Time;durP1;ratioP1;P1;durP2;ratioP2;P2;SDS_P1;SDS_P2;PMS_P1;PMS_P2;Temp;Humidity;BMP_temperature;BMP_pressure;BME280_temperature;BME280_humidity;BME280_pressure;Samples;Min_cycle;Max_cycle;Signal;HPM_P1;HPM_P2
2021/07/02 00:01:01;;;;;;;46.92;26.70;;;;;;;;;;6250766;22;20027;-86
2021/07/02 00:03:28;;;;;;;40.28;23.52;;;;;;;;;;6253205;22;20094;-84
2021/07/02 00:05:54;;;;;;;46.47;24.75;;;;;;;;;;6251470;22;20028;-84
2021/07/02 00:08:25;;;;;;;49.58;25.27;;;;;;;;;;6251088;22;20023;-84
2021/07/02 00:10:55;;;;;;;46.22;25.23;;;;;;;;;;6252705;22;20144;-85
2021/07/02 00:13:21;;;;;;;42.08;23.50;;;;;;;;;;6277573;22;20027;-84
2021/07/02 00:15:51;;;;;;;43.53;24.70;;;;;;;;;;6278333;22;20032;-84
2021/07/02 00:18:17;;;;;;;47.63;27.85;;;;;;;;;;6250397;22;20062;-84
2021/07/02 00:20:50;;;;;;;48.22;27.02;;;;;;;;;;6249538;22;20257;-85
2021/07/02 00:23:17;;;;;;;55.40;27.42;;;;;;;;;;6250893;22;20054;-84
2021/07/02 00:25:43;;;;;;;55.40;27.75;;;;;;;;;;6252304;22;20066;-84
2021/07/02 00:28:10;;;;;;;50.63;27.27;;;;;;;;;;6279089;22;20055;-84
2021/07/02 00:30:42;;;;;;;47.72;26.88;;;;;;;;;;6250561;22;20097;-84
2021/07/02 00:33:13;;;;;;;41.80;25.25;;;;;;;;;;6250577;22;20302;-84
2021/07/02 00:35:41;;;;;;;47.67;26.55;;;;;;;;;;6278650;22;20028;-83
2021/07/02 00:38:08;;;;;;;48.80;27.02;;;;;;;;;;6277990;22;20028;-83
2021/07/02 00:40:35;;;;;;;58.20;30.15;;;;;;;;;;6250755;22;20024;-83
2021/07/02 00:43:02;;;;;;;54.78;28.20;;;;;;;;;;6277546;22;20023;-83
2021/07/02 00:45:33;;;;;;;59.20;28.38;;;;;;;;;;6276012;22;20086;-83
2021/07/02 00:48:02;;;;;;;52.95;29.42;;;;;;;;;;6278856;22;20035;-83
2021/07/02 00:50:28;;;;;;;51.83;28.48;;;;;;;;;;6249186;22;20309;-83
2021/07/02 00:52:55;;;;;;;52.30;28.20;;;;;;;;;;6277523;22;20038;-84
2021/07/02 00:55:28;;;;;;;51.50;29.40;;;;;;;;;;6279396;22;20070;-84
2021/07/02 00:57:55;;;;;;;49.97;28.08;;;;;;;;;;6254145;22;20074;-84
2021/07/02 01:00:21;;;;;;;51.03;27.42;;;;;;;;;;6283656;22;20027;-84
2021/07/02 01:02:48;;;;;;;50.50;27.45;;;;;;;;;;6270859;22;20024;-84
2021/07/02 01:05:15;;;;;;;52.47;28.20;;;;;;;;;;6284933;22;20153;-85
2021/07/02 01:07:42;;;;;;;47.42;27.85;;;;;;;;;;6281213;22;20023;-84
2021/07/02 01:10:11;;;;;;;59.83;29.25;;;;;;;;;;6278821;22;20036;-85
2021/07/02 01:12:41;;;;;;;59.70;29.30;;;;;;;;;;6253421;22;20024;-85
2021/07/02 01:15:29;;;;;;;50.10;27.52;;;;;;;;;;6255498;22;20036;-85
2021/07/02 01:17:55;;;;;;;59.55;28.95;;;;;;;;;;6281442;22;20027;-85
2021/07/02 01:20:25;;;;;;;57.97;29.35;;;;;;;;;;6281438;22;20058;-85
2021/07/02 01:22:51;;;;;;;62.75;30.58;;;;;;;;;;6281881;22;20023;-85
2021/07/02 01:25:18;;;;;;;66.35;31.38;;;;;;;;;;6254193;22;20024;-85
2021/07/02 01:27:44;;;;;;;61.03;28.83;;;;;;;;;;6282340;22;20447;-84
2021/07/02 01:30:11;;;;;;;68.95;31.88;;;;;;;;;;6255266;22;20417;-85
2021/07/02 01:32:41;;;;;;;78.35;32.13;;;;;;;;;;6255333;22;20028;-85
2021/07/02 01:35:14;;;;;;;80.80;33.38;;;;;;;;;;6256230;22;20023;-83
2021/07/02 01:37:40;;;;;;;79.72;32.10;;;;;;;;;;6255345;22;20024;-83
2021/07/02 01:40:07;;;;;;;64.88;32.03;;;;;;;;;;6281072;22;20382;-83
2021/07/02 01:42:47;;;;;;;63.80;31.33;;;;;;;;;;6281189;22;20034;-83
2021/07/02 01:45:13;;;;;;;71.30;31.10;;;;;;;;;;6281003;22;20027;-84
2021/07/02 01:47:40;;;;;;;72.97;32.13;;;;;;;;;;6255855;22;20028;-83
2021/07/02 01:50:10;;;;;;;73.85;30.98;;;;;;;;;;6283017;22;20545;-83
2021/07/02 01:52:36;;;;;;;71.50;31.88;;;;;;;;;;6281768;22;20069;-84
2021/07/02 01:55:04;;;;;;;68.70;29.60;;;;;;;;;;6254172;22;20079;-84
2021/07/02 01:57:31;;;;;;;66.53;30.05;;;;;;;;;;6280688;22;20382;-84
2021/07/02 01:59:58;;;;;;;70.55;30.63;;;;;;;;;;6280752;22;20385;-85
2021/07/02 02:02:24;;;;;;;67.35;29.40;;;;;;;;;;6281923;22;20047;-85
2021/07/02 02:04:51;;;;;;;68.57;30.35;;;;;;;;;;6254964;22;20023;-85
2021/07/02 02:07:17;;;;;;;69.80;29.70;;;;;;;;;;6255160;22;20055;-85
2021/07/02 02:09:44;;;;;;;58.28;27.52;;;;;;;;;;6283116;22;20024;-85
2021/07/02 02:12:26;;;;;;;64.05;27.45;;;;;;;;;;6254876;22;20077;-85
2021/07/02 02:14:52;;;;;;;54.38;26.05;;;;;;;;;;6281516;22;20023;-84
2021/07/02 02:17:19;;;;;;;58.55;25.52;;;;;;;;;;6279670;22;20062;-85
2021/07/02 02:19:49;;;;;;;50.45;26.17;;;;;;;;;;6256139;22;20027;-84
2021/07/02 02:22:15;;;;;;;56.58;25.42;;;;;;;;;;6280486;22;20028;-84
2021/07/02 02:24:42;;;;;;;49.53;25.15;;;;;;;;;;6281676;22;20078;-84
2021/07/02 02:27:09;;;;;;;53.42;24.55;;;;;;;;;;6253985;22;20023;-85
2021/07/02 02:29:35;;;;;;;53.67;25.40;;;;;;;;;;6279773;22;20152;-85
2021/07/02 02:32:02;;;;;;;49.22;24.05;;;;;;;;;;6254325;22;20026;-85
2021/07/02 02:34:29;;;;;;;54.80;25.38;;;;;;;;;;6254342;22;20070;-84
2021/07/02 02:36:55;;;;;;;51.70;24.27;;;;;;;;;;6254959;22;20059;-84
2021/07/02 02:39:24;;;;;;;51.53;25.17;;;;;;;;;;6281304;22;20087;-84
2021/07/02 02:41:54;;;;;;;54.13;25.10;;;;;;;;;;6255174;22;20309;-84
2021/07/02 02:44:21;;;;;;;55.08;23.88;;;;;;;;;;6280510;22;20035;-84
2021/07/02 02:46:47;;;;;;;60.92;25.38;;;;;;;;;;6280054;22;20077;-85
2021/07/02 02:49:14;;;;;;;60.90;22.95;;;;;;;;;;6280123;22;20034;-85
2021/07/02 02:51:53;;;;;;;59.67;26.10;;;;;;;;;;6254282;22;20073;-85
2021/07/02 02:54:20;;;;;;;53.40;25.00;;;;;;;;;;6281945;22;20023;-85
2021/07/02 02:57:05;;;;;;;58.58;23.35;;;;;;;;;;6292968;22;20077;-85
2021/07/02 02:59:33;;;;;;;51.65;23.55;;;;;;;;;;6269867;22;20130;-84
2021/07/02 03:02:04;;;;;;;47.97;21.50;;;;;;;;;;6253353;22;20034;-84
2021/07/02 03:04:31;;;;;;;48.53;20.65;;;;;;;;;;6280780;22;20077;-85
2021/07/02 03:06:57;;;;;;;43.67;21.63;;;;;;;;;;6280025;22;20073;-85
2021/07/02 03:09:27;;;;;;;44.28;19.90;;;;;;;;;;6279337;22;20024;-86
2021/07/02 03:11:54;;;;;;;45.70;20.45;;;;;;;;;;6279636;22;20085;-85
2021/07/02 03:14:20;;;;;;;50.45;20.95;;;;;;;;;;6279997;22;20078;-85
2021/07/02 03:16:53;;;;;;;46.42;18.90;;;;;;;;;;6254353;22;20058;-86
2021/07/02 03:19:20;;;;;;;45.75;20.73;;;;;;;;;;6279887;22;20093;-85
2021/07/02 03:21:47;;;;;;;36.50;19.88;;;;;;;;;;6278713;22;20116;-86
2021/07/02 03:24:13;;;;;;;48.00;19.13;;;;;;;;;;6277971;22;20044;-86
2021/07/02 03:26:40;;;;;;;45.42;21.00;;;;;;;;;;6280267;22;20023;-86
2021/07/02 03:29:07;;;;;;;40.88;20.15;;;;;;;;;;6253365;22;20027;-85
2021/07/02 03:31:33;;;;;;;45.03;20.30;;;;;;;;;;6279390;22;20027;-85
2021/07/02 03:34:04;;;;;;;43.70;19.67;;;;;;;;;;6253711;22;20030;-86
2021/07/02 03:36:31;;;;;;;41.22;20.02;;;;;;;;;;6278387;22;20054;-85
2021/07/02 03:38:57;;;;;;;36.83;18.27;;;;;;;;;;6281685;22;20043;-84
2021/07/02 03:41:27;;;;;;;37.28;19.13;;;;;;;;;;6279480;22;20027;-84
2021/07/02 03:43:58;;;;;;;38.78;19.80;;;;;;;;;;6279122;22;20024;-85
2021/07/02 03:46:24;;;;;;;37.05;18.92;;;;;;;;;;6279815;22;20047;-84
2021/07/02 03:48:53;;;;;;;41.08;19.00;;;;;;;;;;6278411;22;20027;-85
2021/07/02 03:51:19;;;;;;;39.75;17.92;;;;;;;;;;6279615;22;20364;-85
2021/07/02 03:53:46;;;;;;;41.03;20.77;;;;;;;;;;6278501;22;20023;-84
2021/07/02 03:56:13;;;;;;;37.92;17.85;;;;;;;;;;6253303;22;20249;-86
2021/07/02 03:58:40;;;;;;;38.28;17.88;;;;;;;;;;6251845;22;20297;-85
2021/07/02 04:01:06;;;;;;;34.83;17.02;;;;;;;;;;6278313;22;20311;-86
2021/07/02 04:03:36;;;;;;;34.22;16.95;;;;;;;;;;6251436;22;20110;-86
2021/07/02 04:06:03;;;;;;;33.92;17.70;;;;;;;;;;6252236;22;20024;-86
2021/07/02 04:08:29;;;;;;;41.65;18.70;;;;;;;;;;6253617;22;20348;-86
2021/07/02 04:10:59;;;;;;;40.42;17.45;;;;;;;;;;6281569;22;20024;-86
2021/07/02 04:13:25;;;;;;;33.45;17.02;;;;;;;;;;6280532;22;20027;-86
2021/07/02 04:15:53;;;;;;;35.22;18.00;;;;;;;;;;6281368;22;20254;-86
2021/07/02 04:18:23;;;;;;;34.35;16.52;;;;;;;;;;6267201;22;20027;-86
2021/07/02 04:20:50;;;;;;;34.22;17.35;;;;;;;;;;6298051;22;20049;-85
2021/07/02 04:23:16;;;;;;;37.45;17.45;;;;;;;;;;6257444;22;20027;-84
2021/07/02 04:25:46;;;;;;;39.05;18.48;;;;;;;;;;6254885;22;20024;-84
2021/07/02 04:28:15;;;;;;;37.15;17.35;;;;;;;;;;6286125;22;20070;-84
2021/07/02 04:30:41;;;;;;;41.45;18.05;;;;;;;;;;6281829;22;20023;-84
2021/07/02 04:33:08;;;;;;;33.17;16.67;;;;;;;;;;6254031;22;20071;-86
2021/07/02 04:35:35;;;;;;;39.20;17.38;;;;;;;;;;6253096;22;20233;-86
2021/07/02 04:38:01;;;;;;;37.00;19.52;;;;;;;;;;6253672;22;20190;-85
2021/07/02 04:40:28;;;;;;;41.65;18.40;;;;;;;;;;6277870;22;20027;-85
2021/07/02 04:42:54;;;;;;;39.97;18.38;;;;;;;;;;6278341;22;20027;-85
2021/07/02 04:45:21;;;;;;;48.70;19.02;;;;;;;;;;6278767;22;20024;-85
2021/07/02 04:47:48;;;;;;;44.10;17.98;;;;;;;;;;6252440;22;20186;-84
2021/07/02 04:50:14;;;;;;;41.05;17.85;;;;;;;;;;6279706;22;20023;-84
2021/07/02 04:52:41;;;;;;;33.97;18.25;;;;;;;;;;6279413;22;20401;-84
2021/07/02 04:55:07;;;;;;;42.42;17.00;;;;;;;;;;6251065;22;20050;-83
2021/07/02 04:57:34;;;;;;;37.45;16.98;;;;;;;;;;6276699;22;20027;-83
2021/07/02 05:00:05;;;;;;;39.65;16.88;;;;;;;;;;6270091;22;20055;-83
2021/07/02 05:02:32;;;;;;;35.17;17.17;;;;;;;;;;6244073;23;20028;-85
2021/07/02 05:04:58;;;;;;;38.22;16.95;;;;;;;;;;6246776;22;20319;-85
2021/07/02 05:07:44;;;;;;;38.55;16.92;;;;;;;;;;6245317;22;20034;-83
2021/07/02 05:10:11;;;;;;;36.85;16.80;;;;;;;;;;6244755;23;20385;-84
2021/07/02 05:12:37;;;;;;;29.80;16.05;;;;;;;;;;6267804;22;20047;-84
2021/07/02 05:15:04;;;;;;;37.78;16.10;;;;;;;;;;6241407;23;20383;-85
2021/07/02 05:17:32;;;;;;;38.78;16.27;;;;;;;;;;6244221;23;20038;-86
2021/07/02 05:20:02;;;;;;;34.50;15.40;;;;;;;;;;6244642;22;20391;-84
2021/07/02 05:22:29;;;;;;;31.70;15.48;;;;;;;;;;6268081;22;20028;-84
2021/07/02 05:24:56;;;;;;;32.53;15.70;;;;;;;;;;6267960;22;20028;-86
2021/07/02 05:27:22;;;;;;;34.17;14.07;;;;;;;;;;6271208;22;20089;-84
2021/07/02 05:29:50;;;;;;;30.50;14.43;;;;;;;;;;6245696;22;20027;-86
2021/07/02 05:32:28;;;;;;;31.00;14.70;;;;;;;;;;6247438;22;20034;-83
2021/07/02 05:35:08;;;;;;;29.63;15.60;;;;;;;;;;6244685;22;20024;-84
2021/07/02 05:37:42;;;;;;;34.40;15.13;;;;;;;;;;6242635;22;20183;-84
2021/07/02 05:40:09;;;;;;;34.80;16.08;;;;;;;;;;6240569;23;20043;-84
2021/07/02 05:42:43;;;;;;;33.33;15.82;;;;;;;;;;6242546;23;20093;-85
2021/07/02 05:45:10;;;;;;;40.70;17.48;;;;;;;;;;6242023;22;20059;-85
2021/07/02 05:47:37;;;;;;;35.25;15.13;;;;;;;;;;6241781;23;20448;-85
2021/07/02 05:50:06;;;;;;;27.08;14.90;;;;;;;;;;6239614;22;20047;-84
2021/07/02 05:52:34;;;;;;;31.63;15.85;;;;;;;;;;6242010;23;20053;-85
2021/07/02 05:55:06;;;;;;;29.05;14.48;;;;;;;;;;6245725;23;20024;-85
2021/07/02 05:57:32;;;;;;;38.95;17.17;;;;;;;;;;6247245;22;20028;-83
2021/07/02 06:00:02;;;;;;;37.28;14.65;;;;;;;;;;6251328;22;20023;-85
2021/07/02 06:02:30;;;;;;;33.75;15.63;;;;;;;;;;6245809;22;20047;-85
2021/07/02 06:04:59;;;;;;;39.25;15.73;;;;;;;;;;6274361;22;20069;-85
2021/07/02 06:07:48;;;;;;;38.03;15.60;;;;;;;;;;6274272;22;20370;-84
2021/07/02 06:10:15;;;;;;;34.30;16.42;;;;;;;;;;6245485;22;20024;-84
2021/07/02 06:12:42;;;;;;;36.15;17.10;;;;;;;;;;6249214;22;20024;-85
2021/07/02 06:15:16;;;;;;;37.25;16.25;;;;;;;;;;6250399;22;20015;-85
2021/07/02 06:17:44;;;;;;;44.85;15.55;;;;;;;;;;6271917;22;20051;-84
2021/07/02 06:20:11;;;;;;;37.40;14.02;;;;;;;;;;6248305;22;20032;-84
2021/07/02 06:22:41;;;;;;;40.53;15.43;;;;;;;;;;6250438;22;20157;-83
2021/07/02 06:25:09;;;;;;;44.17;15.43;;;;;;;;;;6272645;22;20031;-83
2021/07/02 06:27:35;;;;;;;38.35;15.05;;;;;;;;;;6274227;22;20206;-84
2021/07/02 06:30:04;;;;;;;39.38;14.18;;;;;;;;;;6272269;22;20087;-83
2021/07/02 06:32:30;;;;;;;33.67;13.70;;;;;;;;;;6240805;22;20121;-83
2021/07/02 06:34:57;;;;;;;35.22;13.23;;;;;;;;;;6242774;22;20132;-83
2021/07/02 06:37:23;;;;;;;33.95;12.40;;;;;;;;;;6243248;22;20482;-84
2021/07/02 06:39:50;;;;;;;39.53;13.45;;;;;;;;;;6269430;22;20024;-84
2021/07/02 06:42:16;;;;;;;27.60;11.45;;;;;;;;;;6242526;22;20106;-84
2021/07/02 06:44:43;;;;;;;30.08;12.32;;;;;;;;;;6270873;22;20024;-83
2021/07/02 06:47:16;;;;;;;24.58;12.35;;;;;;;;;;6243783;22;20023;-83
2021/07/02 06:49:42;;;;;;;26.20;11.65;;;;;;;;;;6269157;22;20089;-83
2021/07/02 06:52:09;;;;;;;24.02;12.25;;;;;;;;;;6242579;22;20027;-84
2021/07/02 06:54:39;;;;;;;27.25;12.35;;;;;;;;;;6270148;22;20089;-84
2021/07/02 06:57:08;;;;;;;24.48;11.13;;;;;;;;;;6270432;22;20027;-83
2021/07/02 06:59:37;;;;;;;24.10;10.93;;;;;;;;;;6245308;22;20243;-83
2021/07/02 07:02:09;;;;;;;31.27;11.32;;;;;;;;;;6245724;22;20031;-82
2021/07/02 07:04:37;;;;;;;19.52;10.05;;;;;;;;;;6273254;22;20046;-83
2021/07/02 07:07:10;;;;;;;23.25;10.48;;;;;;;;;;6246383;22;20034;-83
2021/07/02 07:09:36;;;;;;;21.80;10.05;;;;;;;;;;6272125;22;20267;-84
2021/07/02 07:12:04;;;;;;;18.35;9.57;;;;;;;;;;6271699;22;20031;-83
2021/07/02 07:14:31;;;;;;;24.35;11.35;;;;;;;;;;6270715;22;20408;-83
2021/07/02 07:17:01;;;;;;;26.10;10.52;;;;;;;;;;6246195;22;20051;-82
2021/07/02 07:19:54;;;;;;;23.92;10.10;;;;;;;;;;6248538;22;20078;-83
2021/07/02 07:22:20;;;;;;;24.38;9.38;;;;;;;;;;6246980;22;20406;-83
2021/07/02 07:24:47;;;;;;;17.52;8.75;;;;;;;;;;6274686;22;20023;-84
2021/07/02 07:27:15;;;;;;;16.33;8.57;;;;;;;;;;6275119;22;20034;-83
2021/07/02 07:29:42;;;;;;;17.90;9.20;;;;;;;;;;6278820;22;20027;-84
2021/07/02 07:32:12;;;;;;;24.77;9.07;;;;;;;;;;6253429;22;20024;-83
2021/07/02 07:34:48;;;;;;;17.30;7.28;;;;;;;;;;6264684;22;20211;-84
2021/07/02 07:37:20;;;;;;;16.15;6.97;;;;;;;;;;6256863;22;20028;-83
2021/07/02 07:39:47;;;;;;;14.65;7.43;;;;;;;;;;6247279;22;20038;-82
2021/07/02 07:42:16;;;;;;;15.40;6.95;;;;;;;;;;6247441;22;20031;-82
2021/07/02 07:44:45;;;;;;;19.73;6.97;;;;;;;;;;6270959;22;20025;-82
2021/07/02 07:47:16;;;;;;;17.10;7.85;;;;;;;;;;6244468;22;20122;-83
2021/07/02 07:49:53;;;;;;;16.95;8.02;;;;;;;;;;6242452;22;20237;-83
2021/07/02 07:52:38;;;;;;;19.58;8.10;;;;;;;;;;6272348;22;20227;-83
2021/07/02 07:55:10;;;;;;;14.45;7.28;;;;;;;;;;6244226;22;20231;-84
2021/07/02 07:57:40;;;;;;;15.00;7.55;;;;;;;;;;6240056;22;20028;-83
2021/07/02 08:00:18;;;;;;;18.60;7.60;;;;;;;;;;6267003;22;20047;-82
2021/07/02 08:02:49;;;;;;;15.85;7.18;;;;;;;;;;6245418;22;20035;-84
2021/07/02 08:05:19;;;;;;;12.25;6.15;;;;;;;;;;6242073;22;20024;-83
2021/07/02 08:08:02;;;;;;;17.63;7.72;;;;;;;;;;6243491;22;20027;-83
2021/07/02 08:10:31;;;;;;;17.90;8.45;;;;;;;;;;6243341;22;20027;-83
2021/07/02 08:13:13;;;;;;;17.17;8.35;;;;;;;;;;6247422;22;20024;-84
2021/07/02 08:15:40;;;;;;;14.18;7.75;;;;;;;;;;6244463;22;20024;-84
2021/07/02 08:18:07;;;;;;;14.82;7.95;;;;;;;;;;6272224;22;20046;-85
2021/07/02 08:20:43;;;;;;;15.35;7.45;;;;;;;;;;6242472;22;20218;-86
2021/07/02 08:23:10;;;;;;;15.32;6.97;;;;;;;;;;6246599;22;20203;-83
2021/07/02 08:25:37;;;;;;;12.95;7.05;;;;;;;;;;6244210;22;20020;-85
2021/07/02 08:30:54;;;;;;;14.88;7.82;;;;;;;;;;6276367;22;20091;-83
2021/07/02 08:33:29;;;;;;;18.50;7.57;;;;;;;;;;6250161;22;20028;-85
2021/07/02 08:36:22;;;;;;;15.90;7.30;;;;;;;;;;6252028;22;20020;-84
2021/07/02 08:38:53;;;;;;;15.68;7.85;;;;;;;;;;6277551;22;20296;-85
2021/07/02 08:41:24;;;;;;;17.55;8.05;;;;;;;;;;6274950;22;20085;-83
2021/07/02 08:44:03;;;;;;;16.75;7.50;;;;;;;;;;6278349;22;20035;-86
2021/07/02 08:46:44;;;;;;;16.20;7.95;;;;;;;;;;6249550;22;20077;-84
2021/07/02 08:49:29;;;;;;;16.17;8.18;;;;;;;;;;6272166;22;20405;-84
2021/07/02 08:52:02;;;;;;;15.27;7.97;;;;;;;;;;6249051;22;20081;-84
2021/07/02 08:54:36;;;;;;;21.92;8.27;;;;;;;;;;6247898;22;20086;-84
2021/07/02 08:57:03;;;;;;;14.85;8.15;;;;;;;;;;6275604;22;20082;-84
2021/07/02 08:59:32;;;;;;;18.38;8.40;;;;;;;;;;6249858;22;20107;-84
2021/07/02 09:02:00;;;;;;;16.30;8.65;;;;;;;;;;6250980;22;20035;-84
2021/07/02 09:04:39;;;;;;;22.65;10.82;;;;;;;;;;6272482;22;20342;-84
2021/07/02 09:07:12;;;;;;;18.38;8.68;;;;;;;;;;6246164;22;20034;-85
2021/07/02 09:10:01;;;;;;;20.13;8.00;;;;;;;;;;6250486;22;20023;-85
2021/07/02 09:12:39;;;;;;;15.45;7.90;;;;;;;;;;6246198;22;20054;-84
2021/07/02 09:15:14;;;;;;;13.50;6.80;;;;;;;;;;6250516;22;20028;-84
2021/07/02 09:17:53;;;;;;;16.38;7.57;;;;;;;;;;6248031;22;20056;-85
2021/07/02 09:20:35;;;;;;;12.48;7.45;;;;;;;;;;6246807;22;20209;-85
2021/07/02 09:23:05;;;;;;;15.82;7.47;;;;;;;;;;6246205;22;20020;-85
2021/07/02 09:26:00;;;;;;;14.68;8.38;;;;;;;;;;6272776;22;20583;-84
2021/07/02 09:28:31;;;;;;;16.38;7.93;;;;;;;;;;6247727;22;20027;-85
2021/07/02 09:31:03;;;;;;;16.10;7.85;;;;;;;;;;6245959;22;20161;-85
2021/07/02 09:33:31;;;;;;;15.00;8.18;;;;;;;;;;6275744;22;20378;-84
2021/07/02 09:36:01;;;;;;;16.45;8.18;;;;;;;;;;6274175;22;20201;-83
2021/07/02 09:38:40;;;;;;;14.27;7.65;;;;;;;;;;6273587;22;20071;-85
2021/07/02 09:41:08;;;;;;;18.42;8.50;;;;;;;;;;6274132;22;20134;-84
2021/07/02 09:43:38;;;;;;;16.58;10.00;;;;;;;;;;6275103;22;20028;-84
2021/07/02 09:46:05;;;;;;;16.05;9.07;;;;;;;;;;6249039;22;20087;-85
2021/07/02 09:48:43;;;;;;;17.88;9.57;;;;;;;;;;6246892;22;20396;-85
2021/07/02 09:51:10;;;;;;;23.08;9.73;;;;;;;;;;6245537;22;20024;-84
2021/07/02 09:53:37;;;;;;;15.30;7.53;;;;;;;;;;6249239;22;20024;-84
2021/07/02 09:56:05;;;;;;;19.48;8.38;;;;;;;;;;6247023;22;20264;-84
2021/07/02 09:58:44;;;;;;;16.38;8.07;;;;;;;;;;6248359;22;20040;-84
2021/07/02 10:01:25;;;;;;;13.68;7.68;;;;;;;;;;6241379;23;20051;-85
2021/07/02 10:04:14;;;;;;;14.52;7.18;;;;;;;;;;6252477;23;20199;-88
2021/07/02 10:06:51;;;;;;;14.18;8.07;;;;;;;;;;6250985;23;20036;-89
2021/07/02 10:09:18;;;;;;;11.25;7.72;;;;;;;;;;6238763;22;20024;-88
2021/07/02 10:11:50;;;;;;;11.43;6.60;;;;;;;;;;6240280;23;20036;-90
2021/07/02 10:14:21;;;;;;;11.20;7.15;;;;;;;;;;6248382;22;20025;-88
2021/07/02 10:16:50;;;;;;;14.85;7.82;;;;;;;;;;6244932;22;20024;-88
2021/07/02 10:19:19;;;;;;;12.95;7.85;;;;;;;;;;6245230;23;20048;-88
2021/07/02 10:21:47;;;;;;;13.80;7.63;;;;;;;;;;6247361;23;20027;-90
2021/07/02 10:24:14;;;;;;;15.18;7.38;;;;;;;;;;6245542;23;20023;-89
2021/07/02 10:26:40;;;;;;;11.75;7.65;;;;;;;;;;6245383;23;20079;-89
2021/07/02 10:29:14;;;;;;;20.50;8.75;;;;;;;;;;6245525;23;20027;-89
2021/07/02 10:31:49;;;;;;;16.58;8.52;;;;;;;;;;6243334;23;20068;-89
2021/07/02 10:34:21;;;;;;;14.38;8.55;;;;;;;;;;6238320;23;20028;-87
2021/07/02 10:36:49;;;;;;;14.23;9.02;;;;;;;;;;6247233;23;20220;-89
2021/07/02 10:39:40;;;;;;;17.25;9.90;;;;;;;;;;6243396;23;20032;-89
2021/07/02 10:42:12;;;;;;;15.65;8.77;;;;;;;;;;6247343;23;20028;-88
2021/07/02 10:44:54;;;;;;;12.50;8.45;;;;;;;;;;6236347;23;20182;-89
2021/07/02 10:47:27;;;;;;;12.27;7.85;;;;;;;;;;6240054;23;20441;-89
2021/07/02 10:50:06;;;;;;;12.85;7.85;;;;;;;;;;6254017;22;20032;-89
2021/07/02 10:52:43;;;;;;;12.50;7.28;;;;;;;;;;6258823;22;20046;-90
2021/07/02 10:55:29;;;;;;;17.30;8.05;;;;;;;;;;6234411;22;20036;-89
2021/07/02 11:01:55;;;;;;;13.30;7.80;;;;;;;;;;6265625;22;20014;-88
2021/07/02 11:04:50;;;;;;;12.50;7.53;;;;;;;;;;6274168;22;20038;-90
2021/07/02 11:55:57;;;;;;;;;;;;;;;;;;;;;
2021/07/02 11:59:23;;;;;;;10.13;6.32;;;;;;;;;;6005944;23;20140;-88
2021/07/02 12:16:19;;;;;;;7.15;5.40;;;;;;;;;;6037231;23;20035;-89
2021/07/02 12:18:52;;;;;;;9.52;5.75;;;;;;;;;;6032592;23;20331;-89
2021/07/02 12:21:29;;;;;;;8.93;6.32;;;;;;;;;;6034327;23;20455;-88
2021/07/02 12:24:09;;;;;;;9.95;5.70;;;;;;;;;;6034743;23;20135;-88
2021/07/02 12:26:38;;;;;;;8.10;5.82;;;;;;;;;;6011135;23;20156;-89
2021/07/02 12:29:06;;;;;;;11.48;5.63;;;;;;;;;;6007789;23;20031;-89
2021/07/02 12:31:37;;;;;;;14.88;6.35;;;;;;;;;;6045321;23;20248;-88
2021/07/02 12:34:11;;;;;;;11.20;6.32;;;;;;;;;;6047737;23;20099;-88
2021/07/02 12:36:51;;;;;;;11.95;7.20;;;;;;;;;;6126514;23;20029;-87
2021/07/02 12:39:26;;;;;;;13.13;8.98;;;;;;;;;;6124207;23;20458;-88
2021/07/02 12:41:55;;;;;;;13.88;9.07;;;;;;;;;;6149767;23;20057;-88
2021/07/02 12:44:24;;;;;;;15.02;9.85;;;;;;;;;;6219267;23;20039;-88
2021/07/02 12:46:54;;;;;;;13.35;10.32;;;;;;;;;;6216195;23;20034;-87
2021/07/02 12:49:30;;;;;;;17.02;11.00;;;;;;;;;;6216833;23;20040;-88
2021/07/02 12:54:47;;;;;;;16.45;10.25;;;;;;;;;;6215837;23;20206;-87
2021/07/02 12:54:58;;;;;;;11.50;8.93;;;;;;;;;;6239815;23;20032;-87
2021/07/02 12:57:32;;;;;;;12.82;9.30;;;;;;;;;;6241356;23;20034;-88
2021/07/02 13:00:12;;;;;;;13.63;8.70;;;;;;;;;;6226584;22;20114;-88
2021/07/02 13:02:52;;;;;;;16.88;9.23;;;;;;;;;;6273046;22;20094;-88
2021/07/02 13:05:25;;;;;;;14.25;8.02;;;;;;;;;;6245052;22;20237;-88
2021/07/02 13:08:05;;;;;;;14.70;8.10;;;;;;;;;;6275094;22;20024;-90
2021/07/02 13:10:35;;;;;;;16.50;9.05;;;;;;;;;;6239630;22;20401;-88
2021/07/02 13:13:07;;;;;;;13.90;8.52;;;;;;;;;;6247068;22;20083;-88
2021/07/02 13:15:35;;;;;;;13.43;9.82;;;;;;;;;;6249563;22;20011;-89
2021/07/02 13:18:05;;;;;;;14.00;9.30;;;;;;;;;;6251066;22;20103;-89
2021/07/02 13:20:59;;;;;;;13.75;7.95;;;;;;;;;;6240364;22;20056;-87
2021/07/02 13:23:26;;;;;;;11.13;7.43;;;;;;;;;;6218528;23;20063;-88
2021/07/02 13:26:13;;;;;;;13.32;7.53;;;;;;;;;;6221219;23;20466;-88
2021/07/02 13:28:44;;;;;;;11.68;7.13;;;;;;;;;;6220193;23;20028;-87
2021/07/02 13:31:33;;;;;;;11.88;6.00;;;;;;;;;;6221627;23;20410;-87
2021/07/02 13:34:07;;;;;;;10.52;6.07;;;;;;;;;;6219773;23;20095;-88
2021/07/02 13:36:41;;;;;;;13.38;5.97;;;;;;;;;;6248087;22;20120;-88
2021/07/02 13:39:17;;;;;;;8.02;5.75;;;;;;;;;;6222711;23;20103;-88
2021/07/02 13:42:01;;;;;;;7.75;5.45;;;;;;;;;;6228417;23;20038;-88
2021/07/02 13:44:32;;;;;;;7.25;5.35;;;;;;;;;;6224637;23;20036;-87
2021/07/02 13:47:03;;;;;;;8.75;6.57;;;;;;;;;;6220198;23;20025;-88
2021/07/02 13:49:30;;;;;;;11.70;5.97;;;;;;;;;;6218810;23;20123;-89
2021/07/02 13:52:00;;;;;;;8.23;5.35;;;;;;;;;;6225892;22;20008;-87
2021/07/02 13:54:27;;;;;;;8.63;5.68;;;;;;;;;;6246816;23;20024;-87
2021/07/02 13:56:54;;;;;;;8.55;5.65;;;;;;;;;;6218631;23;20485;-87
2021/07/02 13:59:21;;;;;;;9.05;5.07;;;;;;;;;;6217841;23;20058;-87
2021/07/02 14:01:48;;;;;;;11.32;5.50;;;;;;;;;;6242551;23;20346;-86
2021/07/02 14:04:15;;;;;;;9.73;5.45;;;;;;;;;;6250507;23;20032;-88
2021/07/02 14:06:42;;;;;;;6.85;5.70;;;;;;;;;;6234214;22;20245;-88
2021/07/02 14:09:09;;;;;;;9.45;5.30;;;;;;;;;;6225600;23;20024;-88
2021/07/02 14:11:36;;;;;;;9.02;4.85;;;;;;;;;;6243808;23;20051;-88
2021/07/02 14:14:10;;;;;;;8.77;5.80;;;;;;;;;;6247242;22;20086;-86
2021/07/02 14:16:37;;;;;;;10.57;5.68;;;;;;;;;;6245789;22;20039;-87
2021/07/02 14:19:05;;;;;;;11.32;6.53;;;;;;;;;;6217665;23;20024;-88
2021/07/02 14:21:41;;;;;;;10.52;5.90;;;;;;;;;;6244009;22;20087;-87
2021/07/02 14:24:09;;;;;;;8.23;5.55;;;;;;;;;;6244712;23;20027;-87
2021/07/02 14:26:37;;;;;;;8.63;5.43;;;;;;;;;;6240627;23;20032;-87
2021/07/02 14:29:04;;;;;;;8.73;6.00;;;;;;;;;;6215050;23;20024;-86
2021/07/02 14:31:32;;;;;;;9.60;5.68;;;;;;;;;;6214103;23;20055;-87
2021/07/02 14:33:58;;;;;;;8.38;5.13;;;;;;;;;;6217153;23;20079;-86
2021/07/02 14:36:25;;;;;;;8.68;6.43;;;;;;;;;;6242503;23;20024;-87
2021/07/02 14:38:52;;;;;;;10.00;7.40;;;;;;;;;;6218291;22;20032;-87
2021/07/02 14:41:18;;;;;;;11.00;5.88;;;;;;;;;;6211505;23;20082;-87
2021/07/02 14:43:45;;;;;;;10.35;6.07;;;;;;;;;;6238671;23;20028;-87
2021/07/02 14:46:12;;;;;;;9.15;6.63;;;;;;;;;;6215123;23;20125;-87
2021/07/02 14:48:43;;;;;;;11.00;6.63;;;;;;;;;;6216210;23;20277;-89
2021/07/02 14:51:11;;;;;;;8.75;5.80;;;;;;;;;;6239458;23;20032;-87
2021/07/02 14:53:52;;;;;;;7.40;5.43;;;;;;;;;;6242583;23;20067;-87
2021/07/02 14:56:22;;;;;;;;;;;;;;;;;;6216286;23;20047;-88
2021/07/02 14:58:49;;;;;;;7.65;5.30;;;;;;;;;;6214659;23;19915;-87
2021/07/02 15:01:31;;;;;;;8.52;5.78;;;;;;;;;;6216874;23;20231;-87
2021/07/02 15:04:01;;;;;;;7.80;5.47;;;;;;;;;;6216963;23;20024;-86
2021/07/02 15:06:39;;;;;;;;;;;;;;;;;;;;;
2021/07/02 15:09:17;;;;;;;8.75;4.40;;;;;;;;;;6244269;23;20051;-87
2021/07/02 15:11:44;;;;;;;7.97;4.72;;;;;;;;;;6217526;23;20024;-87
2021/07/02 15:14:12;;;;;;;6.93;5.18;;;;;;;;;;6216132;23;20028;-87
2021/07/02 15:16:39;;;;;;;7.82;4.75;;;;;;;;;;6213890;23;20024;-85
2021/07/02 15:19:07;;;;;;;10.07;6.30;;;;;;;;;;6214019;23;20028;-86
2021/07/02 15:21:36;;;;;;;9.80;5.93;;;;;;;;;;6214697;23;20202;-86
2021/07/02 15:24:15;;;;;;;9.10;6.22;;;;;;;;;;6213422;23;20381;-87
2021/07/02 15:26:42;;;;;;;9.10;6.03;;;;;;;;;;6219642;23;20117;-87
2021/07/02 15:29:09;;;;;;;10.95;5.97;;;;;;;;;;6213990;23;20034;-86
2021/07/02 15:31:54;;;;;;;8.27;4.65;;;;;;;;;;6213571;23;20024;-86
2021/07/02 15:34:21;;;;;;;6.88;4.47;;;;;;;;;;6239744;23;20126;-87
2021/07/02 15:36:48;;;;;;;7.60;5.05;;;;;;;;;;6212909;23;20214;-87
2021/07/02 15:39:15;;;;;;;8.20;5.57;;;;;;;;;;6210163;23;20193;-87
2021/07/02 15:42:02;;;;;;;9.32;6.22;;;;;;;;;;6214056;23;20216;-87
2021/07/02 15:44:30;;;;;;;7.50;5.78;;;;;;;;;;6237804;23;20277;-87
2021/07/02 15:46:57;;;;;;;7.45;5.32;;;;;;;;;;6210314;23;20036;-87
2021/07/02 15:49:24;;;;;;;7.35;5.38;;;;;;;;;;6211150;23;20032;-87
2021/07/02 15:51:51;;;;;;;8.38;5.35;;;;;;;;;;6211749;23;20075;-87
2021/07/02 15:54:18;;;;;;;10.48;6.38;;;;;;;;;;6214035;23;20063;-87
2021/07/02 15:56:44;;;;;;;8.30;5.78;;;;;;;;;;6242845;23;20161;-86